createdAt,value
2023-03-14T00:01:21.295Z,15.80
2023-03-14T00:03:50.877Z,15.80
2023-03-14T00:06:19.380Z,15.80
2023-03-14T00:08:46.805Z,15.80
2023-03-14T00:11:20.800Z,15.70
2023-03-14T00:13:51.843Z,15.70
2023-03-14T00:16:19.730Z,15.50
2023-03-14T00:18:46.690Z,15.50
2023-03-14T00:21:14.028Z,15.40
2023-03-14T00:23:42.508Z,15.30
2023-03-14T00:26:13.144Z,15.30
2023-03-14T00:28:41.233Z,15.30
2023-03-14T00:31:11.281Z,15.30
2023-03-14T00:33:40.431Z,15.30
2023-03-14T00:36:12.341Z,15.20
2023-03-14T00:38:43.243Z,15.20
2023-03-14T00:41:17.643Z,15.10
2023-03-14T00:43:45.293Z,15.10
2023-03-14T00:46:12.982Z,15.10
2023-03-14T00:48:40.198Z,15.10
2023-03-14T00:51:10.085Z,15.10
2023-03-14T00:53:39.074Z,15.10
2023-03-14T00:56:10.295Z,15.10
2023-03-14T00:58:37.444Z,15.10
2023-03-14T01:01:20.476Z,15.20
2023-03-14T01:03:52.607Z,15.20
2023-03-14T01:06:28.863Z,15.20
2023-03-14T01:09:00.203Z,15.20
2023-03-14T01:11:33.156Z,15.20
2023-03-14T01:14:00.958Z,15.10
2023-03-14T01:16:34.638Z,15.10
2023-03-14T01:19:04.267Z,15.10
2023-03-14T01:21:34.452Z,15.20
2023-03-14T01:24:03.891Z,15.20
2023-03-14T01:26:33.996Z,15.20
2023-03-14T01:29:01.231Z,15.30
2023-03-14T01:31:28.785Z,15.20
2023-03-14T01:33:55.821Z,15.20
2023-03-14T01:36:24.929Z,15.20
2023-03-14T01:38:54.202Z,15.20
2023-03-14T01:41:26.207Z,15.10
2023-03-14T01:43:55.969Z,15.10
2023-03-14T01:46:53.307Z,15.10
2023-03-14T01:49:32.833Z,15.10
2023-03-14T01:52:04.116Z,15.00
2023-03-14T01:54:46.154Z,15.00
2023-03-14T01:57:22.749Z,15.00
2023-03-14T01:59:59.446Z,15.00
2023-03-14T02:02:28.312Z,15.00
2023-03-14T02:05:00.136Z,15.00
2023-03-14T02:07:41.953Z,15.00
2023-03-14T02:10:10.470Z,15.00
2023-03-14T02:12:38.680Z,15.00
2023-03-14T02:15:08.598Z,15.00
2023-03-14T02:17:36.799Z,14.90
2023-03-14T02:20:27.020Z,14.90
2023-03-14T02:22:54.483Z,14.90
2023-03-14T02:25:53.013Z,14.90
2023-03-14T02:28:20.388Z,14.90
2023-03-14T02:30:52.789Z,14.90
2023-03-14T02:33:25.042Z,14.80
2023-03-14T02:36:01.568Z,14.80
2023-03-14T02:39:09.620Z,14.80
2023-03-14T02:41:36.469Z,14.70
2023-03-14T02:44:03.419Z,14.70
2023-03-14T02:46:30.595Z,14.70
2023-03-14T02:49:08.696Z,14.70
2023-03-14T02:51:39.381Z,14.70
2023-03-14T02:54:09.684Z,14.70
2023-03-14T02:56:38.996Z,14.70
2023-03-14T02:59:09.145Z,14.70
2023-03-14T03:01:38.653Z,14.70
2023-03-14T03:04:05.955Z,14.70
2023-03-14T03:06:32.855Z,14.70
2023-03-14T03:08:59.737Z,14.70
2023-03-14T03:11:26.578Z,14.70
2023-03-14T03:13:55.489Z,14.70
2023-03-14T03:16:24.504Z,14.70
2023-03-14T03:18:51.377Z,14.70
2023-03-14T03:21:18.778Z,14.70
2023-03-14T03:23:45.780Z,14.70
2023-03-14T03:26:12.699Z,14.70
2023-03-14T03:28:39.625Z,14.70
2023-03-14T03:31:12.020Z,14.60
2023-03-14T03:33:41.600Z,14.60
2023-03-14T03:36:09.885Z,14.60
2023-03-14T03:38:37.214Z,14.60
2023-03-14T03:41:08.426Z,14.50
2023-03-14T03:43:35.277Z,14.50
2023-03-14T03:46:07.172Z,14.50
2023-03-14T03:48:35.202Z,14.50
2023-03-14T03:51:02.287Z,14.50
2023-03-14T03:53:33.820Z,14.50
2023-03-14T03:56:03.442Z,14.50
2023-03-14T03:58:39.863Z,14.50
2023-03-14T04:01:07.996Z,14.50
2023-03-14T04:03:36.184Z,14.40
2023-03-14T04:06:07.541Z,14.40
2023-03-14T04:08:34.469Z,14.40
2023-03-14T04:11:03.222Z,14.40
2023-03-14T04:13:30.606Z,14.40
2023-03-14T04:15:58.009Z,14.40
2023-03-14T04:18:30.461Z,14.40
2023-03-14T04:20:59.023Z,14.30
2023-03-14T04:23:27.324Z,14.30
2023-03-14T04:25:54.827Z,14.30
2023-03-14T04:28:21.787Z,14.30
2023-03-14T04:30:51.073Z,14.40
2023-03-14T04:33:20.388Z,14.40
2023-03-14T04:35:48.393Z,14.40
2023-03-14T04:38:15.340Z,14.40
2023-03-14T04:40:45.294Z,14.40
2023-03-14T04:43:14.666Z,14.30
2023-03-14T04:45:44.895Z,14.20
2023-03-14T04:48:11.840Z,14.20
2023-03-14T04:50:38.648Z,14.20
2023-03-14T04:53:10.684Z,14.10
2023-03-14T04:55:39.786Z,14.10
2023-03-14T04:58:11.679Z,14.10
2023-03-14T05:00:39.833Z,14.10
2023-03-14T05:03:06.790Z,14.20
2023-03-14T05:05:38.718Z,14.20
2023-03-14T05:08:05.712Z,14.10
2023-03-14T05:10:32.604Z,14.20
2023-03-14T05:13:02.018Z,14.20
2023-03-14T05:15:33.651Z,14.20
2023-03-14T05:18:00.434Z,14.20
2023-03-14T05:20:32.004Z,14.20
2023-03-14T05:22:58.813Z,14.20
2023-03-14T05:25:25.739Z,14.20
2023-03-14T05:27:57.214Z,14.20
2023-03-14T05:30:24.206Z,14.20
2023-03-14T05:32:53.669Z,14.20
2023-03-14T05:35:23.212Z,14.10
2023-03-14T05:37:50.114Z,14.10
2023-03-14T05:40:17.277Z,14.10
2023-03-14T05:42:44.170Z,14.10
2023-03-14T05:45:11.678Z,14.10
2023-03-14T05:47:38.539Z,14.10
2023-03-14T05:50:06.016Z,14.10
2023-03-14T05:52:32.993Z,14.00
2023-03-14T05:54:59.880Z,14.00
2023-03-14T05:57:29.514Z,14.00
2023-03-14T05:59:56.413Z,14.00
2023-03-14T06:02:23.331Z,14.00
2023-03-14T06:04:50.300Z,14.00
2023-03-14T06:07:17.177Z,14.00
2023-03-14T06:09:46.355Z,14.00
2023-03-14T06:12:13.259Z,13.90
2023-03-14T06:14:40.156Z,14.00
2023-03-14T06:17:07.019Z,14.00
2023-03-14T06:19:36.469Z,14.00
2023-03-14T06:22:03.355Z,14.00
2023-03-14T06:24:32.738Z,14.00
2023-03-14T06:26:59.616Z,14.00
2023-03-14T06:29:28.790Z,14.00
2023-03-14T06:32:01.007Z,14.00
2023-03-14T06:34:27.940Z,14.00
2023-03-14T06:36:54.830Z,14.00
2023-03-14T06:39:23.907Z,13.90
2023-03-14T06:41:50.768Z,13.80
2023-03-14T06:44:20.815Z,13.80
2023-03-14T06:46:47.770Z,13.70
2023-03-14T06:49:14.827Z,13.60
2023-03-14T06:51:41.754Z,13.60
2023-03-14T06:54:08.694Z,13.60
2023-03-14T06:56:35.587Z,13.60
2023-03-14T06:59:07.110Z,13.60
2023-03-14T07:01:36.040Z,13.70
2023-03-14T07:04:09.051Z,13.70
2023-03-14T07:06:38.706Z,13.70
2023-03-14T07:09:10.513Z,13.80
2023-03-14T07:11:37.591Z,13.80
2023-03-14T07:14:07.173Z,13.80
2023-03-14T07:16:34.117Z,13.90
2023-03-14T07:19:02.242Z,13.90
2023-03-14T07:21:32.916Z,13.90
2023-03-14T07:23:59.752Z,14.00
2023-03-14T07:26:26.696Z,14.10
2023-03-14T07:28:53.637Z,14.20
2023-03-14T07:31:22.738Z,14.30
2023-03-14T07:33:49.861Z,14.50
2023-03-14T07:36:19.506Z,14.80
2023-03-14T07:38:46.482Z,15.10
2023-03-14T07:41:16.354Z,15.40
2023-03-14T07:43:43.261Z,15.60
2023-03-14T07:46:10.409Z,15.90
2023-03-14T07:48:37.312Z,16.20
2023-03-14T07:51:08.988Z,16.60
2023-03-14T07:53:39.174Z,17.00
2023-03-14T07:56:11.565Z,17.40
2023-03-14T07:58:41.512Z,17.60
2023-03-14T08:01:08.513Z,17.60
2023-03-14T08:03:40.138Z,17.60
2023-03-14T08:06:09.845Z,17.50
2023-03-14T08:08:36.848Z,17.40
2023-03-14T08:11:09.787Z,17.30
2023-03-14T08:13:38.922Z,17.10
2023-03-14T08:16:06.625Z,17.20
2023-03-14T08:18:33.748Z,17.30
2023-03-14T08:21:00.649Z,17.30
2023-03-14T08:23:29.893Z,17.40
2023-03-14T08:26:01.434Z,17.70
2023-03-14T08:28:33.424Z,18.10
2023-03-14T08:31:03.747Z,18.30
2023-03-14T08:33:30.859Z,18.20
2023-03-14T08:36:03.183Z,18.10
2023-03-14T08:38:30.197Z,18.00
2023-03-14T08:41:04.859Z,17.80
2023-03-14T08:43:34.230Z,17.60
2023-03-14T08:46:02.167Z,17.50
2023-03-14T08:48:32.242Z,17.30
2023-03-14T08:51:14.841Z,17.20
2023-03-14T08:53:42.831Z,17.10
2023-03-14T08:56:11.218Z,17.00
2023-03-14T08:58:39.060Z,16.90
2023-03-14T09:01:11.353Z,16.70
2023-03-14T09:03:39.321Z,16.60
2023-03-14T09:06:11.044Z,16.50
2023-03-14T09:08:40.346Z,16.40
2023-03-14T09:11:12.925Z,16.30
2023-03-14T09:13:39.923Z,16.20
2023-03-14T09:16:08.321Z,16.10
2023-03-14T09:18:35.381Z,16.10
2023-03-14T09:21:05.021Z,16.00
2023-03-14T09:23:34.674Z,16.00
2023-03-14T09:26:04.310Z,15.90
2023-03-14T09:28:31.447Z,15.90
2023-03-14T09:31:00.994Z,15.80
2023-03-14T09:33:29.935Z,15.80
2023-03-14T09:36:02.210Z,15.80
2023-03-14T09:38:29.532Z,15.80
2023-03-14T09:41:02.941Z,15.80
2023-03-14T09:43:33.017Z,15.80
2023-03-14T09:46:03.174Z,15.80
2023-03-14T09:48:33.823Z,15.80
2023-03-14T09:51:15.457Z,15.70
2023-03-14T09:53:45.509Z,15.70
2023-03-14T09:56:33.628Z,15.70
2023-03-14T09:59:05.382Z,15.70
2023-03-14T10:01:36.919Z,15.70
2023-03-14T10:04:20.234Z,15.70
2023-03-14T10:06:49.865Z,15.60
2023-03-14T10:09:26.263Z,15.60
2023-03-14T10:12:08.911Z,15.60
2023-03-14T10:14:45.336Z,15.70
2023-03-14T10:17:17.928Z,15.70
2023-03-14T10:20:00.296Z,15.70
2023-03-14T10:22:32.076Z,15.70
2023-03-14T10:25:05.716Z,15.70
2023-03-14T10:27:39.120Z,15.70
2023-03-14T10:30:17.554Z,15.70
2023-03-14T10:32:52.108Z,15.70
2023-03-14T10:35:21.932Z,15.70
2023-03-14T10:38:05.957Z,15.60
2023-03-14T10:40:41.536Z,15.60
2023-03-14T10:43:18.213Z,15.50
2023-03-14T10:45:53.509Z,15.50
2023-03-14T10:48:38.603Z,15.40
2023-03-14T10:51:25.539Z,15.40
2023-03-14T10:54:07.196Z,15.40
2023-03-14T10:56:42.870Z,15.30
2023-03-14T10:59:17.050Z,15.30
2023-03-14T11:02:37.505Z,15.30
2023-03-14T11:05:34.908Z,15.20
2023-03-14T11:08:10.968Z,15.10
2023-03-14T11:10:44.652Z,15.10
2023-03-14T11:13:36.869Z,15.10
2023-03-14T11:16:52.043Z,15.10
2023-03-14T11:20:14.556Z,15.10
2023-03-14T11:23:23.627Z,15.10
2023-03-14T11:26:01.682Z,15.00
2023-03-14T11:28:46.647Z,15.00
2023-03-14T11:31:30.842Z,15.00
2023-03-14T11:34:02.037Z,15.00
2023-03-14T11:36:39.852Z,14.90
2023-03-14T11:39:19.110Z,14.90
2023-03-14T11:41:53.865Z,14.90
2023-03-14T11:44:40.741Z,14.90
2023-03-14T11:47:19.455Z,14.90
2023-03-14T11:49:55.235Z,14.90
2023-03-14T11:52:31.525Z,15.00
2023-03-14T11:55:08.897Z,15.00
2023-03-14T11:57:36.304Z,15.00
2023-03-14T12:00:22.924Z,15.00
2023-03-14T12:03:31.431Z,15.10
2023-03-14T12:06:22.542Z,15.10
2023-03-14T12:09:11.907Z,15.10
2023-03-14T12:11:57.776Z,15.00
2023-03-14T12:14:34.969Z,15.00
2023-03-14T12:17:16.070Z,14.90
2023-03-14T12:19:48.117Z,14.90
2023-03-14T12:22:34.550Z,14.90
2023-03-14T12:25:06.760Z,14.90
2023-03-14T12:27:48.516Z,14.80
2023-03-14T12:30:39.081Z,14.80
2023-03-14T12:33:18.203Z,14.80
2023-03-14T12:35:46.542Z,14.80
2023-03-14T12:38:29.226Z,14.80
2023-03-14T12:41:21.083Z,14.80
2023-03-14T12:43:47.918Z,14.70
2023-03-14T12:46:28.588Z,14.60
2023-03-14T12:49:06.496Z,14.60
2023-03-14T12:51:39.068Z,14.50
2023-03-14T12:54:27.959Z,14.50
2023-03-14T12:57:26.659Z,14.40
2023-03-14T13:00:01.113Z,14.40
2023-03-14T13:02:44.920Z,14.30
2023-03-14T13:05:20.970Z,14.30
2023-03-14T13:07:47.795Z,14.20
2023-03-14T13:10:27.788Z,14.20
2023-03-14T13:13:11.854Z,14.20
2023-03-14T13:15:42.734Z,14.20
2023-03-14T13:18:29.917Z,14.20
2023-03-14T13:21:03.928Z,14.20
2023-03-14T13:23:36.794Z,14.20
2023-03-14T13:26:07.032Z,14.10
2023-03-14T13:28:38.601Z,14.20
2023-03-14T13:31:07.142Z,14.20
2023-03-14T13:33:35.888Z,14.20
2023-03-14T13:36:06.209Z,14.10
2023-03-14T13:38:39.897Z,14.10
2023-03-14T13:41:09.231Z,14.10
2023-03-14T13:43:42.162Z,14.10
2023-03-14T13:46:17.756Z,14.10
2023-03-14T13:48:49.739Z,14.20
2023-03-14T13:51:19.956Z,14.20
2023-03-14T13:53:50.027Z,14.20
2023-03-14T13:56:25.742Z,14.30
2023-03-14T13:58:53.394Z,14.30
2023-03-14T14:01:36.374Z,14.40
2023-03-14T14:04:10.561Z,14.40
2023-03-14T14:06:49.400Z,14.40
2023-03-14T14:09:41.002Z,14.40
2023-03-14T14:12:22.613Z,14.30
2023-03-14T14:14:55.736Z,14.30
2023-03-14T14:17:42.046Z,14.20
2023-03-14T14:20:36.012Z,14.20
2023-03-14T14:23:32.537Z,14.20
2023-03-14T14:26:08.616Z,14.20
2023-03-14T14:28:39.368Z,14.10
2023-03-14T14:31:23.080Z,14.10
2023-03-14T14:33:59.066Z,14.10
2023-03-14T14:36:36.426Z,14.10
2023-03-14T14:39:27.400Z,14.00
2023-03-14T14:41:54.946Z,13.90
2023-03-14T14:44:39.259Z,13.90
2023-03-14T14:47:14.389Z,13.90
2023-03-14T14:49:41.706Z,13.90
2023-03-14T14:52:34.032Z,13.80
2023-03-14T14:55:12.002Z,13.80
2023-03-14T14:57:43.268Z,13.80
2023-03-14T15:00:21.555Z,13.90
2023-03-14T15:02:55.496Z,13.80
2023-03-14T15:05:31.874Z,13.80
2023-03-14T15:07:58.869Z,13.90
2023-03-14T15:10:26.766Z,13.90
2023-03-14T15:12:53.934Z,13.90
2023-03-14T15:15:23.935Z,13.90
2023-03-14T15:17:53.504Z,13.90
2023-03-14T15:20:21.628Z,13.80
2023-03-14T15:22:48.586Z,13.80
2023-03-14T15:25:40.130Z,13.80
2023-03-14T15:28:13.964Z,13.80
2023-03-14T15:30:43.030Z,13.80
2023-03-14T15:33:10.608Z,13.80
2023-03-14T15:35:38.816Z,13.80
2023-03-14T15:38:05.775Z,13.80
2023-03-14T15:40:32.800Z,13.80
2023-03-14T15:43:02.055Z,13.80
2023-03-14T15:45:28.903Z,13.80
2023-03-14T15:47:55.841Z,13.80
2023-03-14T15:50:23.089Z,13.80
2023-03-14T15:52:50.012Z,13.80
2023-03-14T15:55:17.067Z,13.80
2023-03-14T15:57:47.337Z,13.80
2023-03-14T16:00:22.550Z,13.80
2023-03-14T16:02:50.167Z,13.80
2023-03-14T16:05:19.917Z,13.80
2023-03-14T16:07:47.550Z,13.80
2023-03-14T16:10:18.847Z,13.80
2023-03-14T16:12:48.670Z,13.80
2023-03-14T16:15:20.212Z,13.80
2023-03-14T16:17:49.883Z,13.80
2023-03-14T16:20:20.392Z,13.80
2023-03-14T16:22:48.328Z,13.80
2023-03-14T16:25:15.919Z,13.80
2023-03-14T16:27:45.623Z,13.80
2023-03-14T16:30:14.226Z,13.80
2023-03-14T16:32:41.207Z,13.80
2023-03-14T16:35:08.612Z,13.80
2023-03-14T16:37:35.492Z,13.70
2023-03-14T16:40:17.503Z,13.70
2023-03-14T16:43:11.278Z,13.70
2023-03-14T16:45:31.281Z,13.70
2023-03-14T16:47:58.226Z,13.70
2023-03-14T16:50:25.205Z,13.70
2023-03-14T16:52:52.177Z,13.70
2023-03-14T16:55:19.343Z,13.70
2023-03-14T16:57:48.700Z,13.70
2023-03-14T17:00:16.109Z,13.70
2023-03-14T17:02:42.961Z,13.60
2023-03-14T17:05:09.954Z,13.60
2023-03-14T17:07:36.819Z,13.60
2023-03-14T17:10:03.864Z,13.50
2023-03-14T17:12:30.773Z,13.50
2023-03-14T17:15:00.484Z,13.50
2023-03-14T17:17:27.421Z,13.50
2023-03-14T17:19:54.274Z,13.50
2023-03-14T17:22:25.165Z,13.50
2023-03-14T17:24:56.527Z,13.50
2023-03-14T17:27:23.355Z,13.50
2023-03-14T17:29:50.933Z,13.40
2023-03-14T17:32:20.306Z,13.40
2023-03-14T17:34:47.344Z,13.40
2023-03-14T17:37:14.257Z,13.40
2023-03-14T17:39:41.132Z,13.30
2023-03-14T17:42:08.463Z,13.30
2023-03-14T17:44:35.727Z,13.20
2023-03-14T17:47:02.809Z,13.20
2023-03-14T17:49:29.773Z,13.10
2023-03-14T17:51:56.780Z,13.10
2023-03-14T17:54:23.722Z,13.00
2023-03-14T17:56:50.643Z,13.00
2023-03-14T17:59:20.703Z,13.00
2023-03-14T18:01:47.726Z,12.90
2023-03-14T18:04:17.586Z,12.90
2023-03-14T18:06:44.773Z,12.80
2023-03-14T18:09:11.661Z,12.80
2023-03-14T18:11:38.522Z,12.70
2023-03-14T18:14:08.606Z,12.60
2023-03-14T18:16:38.154Z,12.60
2023-03-14T18:19:05.115Z,12.50
2023-03-14T18:21:32.036Z,12.50
2023-03-14T18:24:05.037Z,12.40
2023-03-14T18:26:31.921Z,12.40
2023-03-14T18:28:59.081Z,12.30
2023-03-14T18:31:26.110Z,12.30
2023-03-14T18:33:56.882Z,12.20
2023-03-14T18:36:24.036Z,12.20
2023-03-14T18:38:56.368Z,12.20
2023-03-14T18:41:24.380Z,12.10
2023-03-14T18:43:53.580Z,12.10
2023-03-14T18:46:24.113Z,12.10
2023-03-14T18:48:56.414Z,12.00
2023-03-14T18:51:26.138Z,12.00
2023-03-14T18:54:02.851Z,11.90
2023-03-14T18:56:35.175Z,11.90
2023-03-14T18:59:02.197Z,11.80
2023-03-14T19:01:31.559Z,11.80
2023-03-14T19:04:03.283Z,11.80
2023-03-14T19:06:34.065Z,11.70
2023-03-14T19:09:02.377Z,11.70
2023-03-14T19:11:29.331Z,11.60
2023-03-14T19:13:56.956Z,11.60
2023-03-14T19:16:28.653Z,11.60
2023-03-14T19:18:55.941Z,11.60
2023-03-14T19:21:32.339Z,11.60
2023-03-14T19:23:59.674Z,11.50
2023-03-14T19:26:28.712Z,11.50
2023-03-14T19:28:58.447Z,11.50
2023-03-14T19:31:26.113Z,11.50
2023-03-14T19:33:55.668Z,11.40
2023-03-14T19:36:31.917Z,11.40
2023-03-14T19:39:06.036Z,11.30
2023-03-14T19:41:35.837Z,11.30
2023-03-14T19:44:05.188Z,11.30
2023-03-14T19:46:33.367Z,11.30
2023-03-14T19:49:00.361Z,11.30
2023-03-14T19:51:31.259Z,11.30
2023-03-14T19:54:03.147Z,11.20
2023-03-14T19:56:32.609Z,11.20
2023-03-14T19:59:03.133Z,11.20
2023-03-14T20:01:31.700Z,11.20
2023-03-14T20:03:58.823Z,11.20
2023-03-14T20:06:25.776Z,11.20
2023-03-14T20:08:52.701Z,11.10
2023-03-14T20:11:21.731Z,11.10
2023-03-14T20:13:48.626Z,11.20
2023-03-14T20:16:15.806Z,11.20
2023-03-14T20:18:43.002Z,11.20
2023-03-14T20:21:14.232Z,11.10
2023-03-14T20:23:44.038Z,11.10
2023-03-14T20:26:11.473Z,11.10
2023-03-14T20:28:38.377Z,11.10
2023-03-14T20:31:09.785Z,11.10
2023-03-14T20:33:38.953Z,11.10
2023-03-14T20:36:06.440Z,11.00
2023-03-14T20:38:34.692Z,11.00
2023-03-14T20:41:02.191Z,11.00
2023-03-14T20:43:31.625Z,11.00
2023-03-14T20:46:02.627Z,11.00
2023-03-14T20:48:33.489Z,11.00
2023-03-14T20:51:01.636Z,11.10
2023-03-14T20:53:28.911Z,11.00
2023-03-14T20:55:57.384Z,11.10
2023-03-14T20:58:27.312Z,11.10
2023-03-14T21:00:57.111Z,11.00
2023-03-14T21:03:27.229Z,11.00
2023-03-14T21:05:54.367Z,11.00
2023-03-14T21:08:24.740Z,11.00
2023-03-14T21:10:56.054Z,11.00
2023-03-14T21:13:24.041Z,11.00
2023-03-14T21:15:51.106Z,11.00
2023-03-14T21:18:18.148Z,11.00
2023-03-14T21:20:45.225Z,11.00
2023-03-14T21:23:13.181Z,11.00
2023-03-14T21:25:43.245Z,11.00
2023-03-14T21:28:12.434Z,10.90
2023-03-14T21:30:42.170Z,10.90
2023-03-14T21:33:09.112Z,10.90
2023-03-14T21:35:36.241Z,10.90
2023-03-14T21:38:03.364Z,10.90
2023-03-14T21:40:30.244Z,10.90
2023-03-14T21:42:59.333Z,10.90
2023-03-14T21:45:27.257Z,10.80
2023-03-14T21:47:55.360Z,10.80
2023-03-14T21:50:26.343Z,10.80
2023-03-14T21:52:56.924Z,10.80
2023-03-14T21:55:26.756Z,10.80
2023-03-14T21:57:57.809Z,10.80
2023-03-14T22:00:28.521Z,10.80
2023-03-14T22:03:12.398Z,10.80
2023-03-14T22:05:46.045Z,10.80
2023-03-14T22:08:15.558Z,10.80
2023-03-14T22:10:50.836Z,10.70
2023-03-14T22:13:20.862Z,10.70
2023-03-14T22:15:49.031Z,10.70
2023-03-14T22:18:20.420Z,10.70
2023-03-14T22:20:49.998Z,10.70
2023-03-14T22:23:17.243Z,10.70
2023-03-14T22:25:49.306Z,10.70
2023-03-14T22:28:18.957Z,10.70
2023-03-14T22:30:52.539Z,10.70
2023-03-14T22:33:22.270Z,10.70
2023-03-14T22:35:53.559Z,10.70
2023-03-14T22:38:22.925Z,10.60
2023-03-14T22:40:49.885Z,10.60
2023-03-14T22:43:16.868Z,10.60
2023-03-14T22:45:43.881Z,10.60
2023-03-14T22:48:10.887Z,10.50
2023-03-14T22:50:39.789Z,10.50
2023-03-14T22:53:06.815Z,10.50
2023-03-14T22:55:38.466Z,10.50
2023-03-14T22:58:05.607Z,10.50
2023-03-14T23:00:33.711Z,10.40
2023-03-14T23:03:01.067Z,10.40
2023-03-14T23:05:28.113Z,10.40
2023-03-14T23:07:55.047Z,10.40
2023-03-14T23:10:23.150Z,10.40
2023-03-14T23:12:50.516Z,10.40
2023-03-14T23:15:17.529Z,10.40
2023-03-14T23:17:45.145Z,10.40
2023-03-14T23:20:19.188Z,10.40
2023-03-14T23:22:51.304Z,10.30
2023-03-14T23:25:18.726Z,10.30
2023-03-14T23:27:46.486Z,10.30
2023-03-14T23:30:17.559Z,10.30
2023-03-14T23:32:44.542Z,10.30
2023-03-14T23:35:15.252Z,10.30
2023-03-14T23:37:42.125Z,10.30
2023-03-14T23:40:10.247Z,10.30
2023-03-14T23:42:39.718Z,10.30
2023-03-14T23:45:07.493Z,10.20
2023-03-14T23:47:34.644Z,10.30
2023-03-14T23:50:01.537Z,10.20
2023-03-14T23:52:28.802Z,10.20
2023-03-14T23:54:57.941Z,10.20
2023-03-14T23:57:27.863Z,10.20
2023-03-14T23:59:56.857Z,10.20
